KFHR/FHR METAR and TAF weather

Enter ICAO airport designator
Station Type Date Time Source
KFHR METAR 2020/03/28 07:53 UTC NOAA

KFHR 280753Z AUTO 10004KT 10SM OVC011 08/07 A3001 RMK AO2 SLP163 T00830067 401000061


Station Type Date Time Source
KFHR Decoded METAR 2020/03/28 07:53 UTC NOAA

FRIDAY HARBOR AIRPORT, WA, United States (KFHR) 48-31N 123-02W 32M
Mar 28, 2020 - 03:53 AM EDT / 2020.03.28 0753 UTC
Wind: from the E (100 degrees) at 5 MPH (4 KT):0
Visibility: 10 mile(s):0
Sky conditions: overcast
Temperature: 46.9 F (8.3 C)
Dew Point: 44.1 F (6.7 C)
Relative Humidity: 89%
Pressure (altimeter): 30.01 in. Hg (1016 hPa)
ob: KFHR 280753Z AUTO 10004KT 10SM OVC011 08/07 A3001 RMK AO2 SLP163 T00830067 401000061
cycle: 8

Station Type Date Time Source
KFHR TAF UTC NOAA

Error!

Example: see airport list